Time;durP1;ratioP1;P1;durP2;ratioP2;P2;SDS_P1;SDS_P2;PMS_P1;PMS_P2;Temp;Humidity;BMP_temperature;BMP_pressure;BME280_temperature;BME280_humidity;BME280_pressure;Samples;Min_cycle;Max_cycle;Signal;HPM_P1;HPM_P2
2023/09/20 00:00:53;;;;;;;7.13;4.80;;;14.60;99.90;;;;;;2090655;28;20063;-73
2023/09/20 00:01:53;;;;;;;7.30;4.68;;;14.60;99.90;;;;;;2090126;28;20614;-73
2023/09/20 00:02:54;;;;;;;6.05;4.70;;;14.60;99.90;;;;;;2086928;28;20077;-74
2023/09/20 00:03:55;;;;;;;7.75;4.57;;;14.60;99.90;;;;;;2088992;28;20036;-73
2023/09/20 00:05:00;;;;;;;8.43;5.15;;;14.60;99.90;;;;;;2086271;28;20039;-74
2023/09/20 00:06:07;;;;;;;7.03;4.93;;;14.60;99.90;;;;;;2089598;28;20496;-71
2023/09/20 00:07:08;;;;;;;7.72;5.05;;;14.60;99.90;;;;;;2088115;28;20070;-72
2023/09/20 00:08:09;;;;;;;7.85;5.30;;;14.60;99.90;;;;;;2082229;28;20028;-72
2023/09/20 00:09:09;;;;;;;7.65;4.88;;;14.60;99.90;;;;;;2089006;28;20640;-72
2023/09/20 00:10:12;;;;;;;7.82;5.07;;;14.60;99.90;;;;;;2092294;28;20032;-73
2023/09/20 00:11:15;;;;;;;9.65;4.95;;;14.60;99.90;;;;;;2091488;28;20111;-72
2023/09/20 00:12:16;;;;;;;7.72;4.93;;;14.60;99.90;;;;;;2088766;28;20661;-73
2023/09/20 00:13:16;;;;;;;8.18;5.38;;;14.60;99.90;;;;;;2087718;28;20041;-72
2023/09/20 00:14:17;;;;;;;8.82;5.30;;;14.60;99.90;;;;;;2090137;28;20040;-73
2023/09/20 00:15:17;;;;;;;7.57;5.25;;;14.60;99.90;;;;;;2078773;28;20568;-73
2023/09/20 00:16:19;;;;;;;8.27;5.53;;;14.60;99.90;;;;;;2088305;28;20609;-73
2023/09/20 00:17:19;;;;;;;9.05;5.70;;;14.60;99.90;;;;;;2086384;28;20466;-74
2023/09/20 00:18:22;;;;;;;8.77;5.22;;;14.60;99.90;;;;;;2091215;28;20024;-73
2023/09/20 00:19:23;;;;;;;6.32;4.63;;;14.60;99.90;;;;;;2089746;28;20029;-72
2023/09/20 00:20:24;;;;;;;9.02;4.90;;;14.60;99.90;;;;;;2088282;28;20021;-72
2023/09/20 00:21:25;;;;;;;6.80;5.05;;;14.60;99.90;;;;;;2090977;28;20061;-72
2023/09/20 00:22:26;;;;;;;6.43;4.75;;;14.60;99.90;;;;;;2088087;28;20115;-72
2023/09/20 00:23:27;;;;;;;9.73;4.60;;;14.60;99.90;;;;;;2087851;28;20017;-72
2023/09/20 00:24:28;;;;;;;6.80;4.88;;;14.60;99.90;;;;;;2090635;28;20028;-72
2023/09/20 00:25:28;;;;;;;6.32;4.40;;;14.60;99.90;;;;;;2089876;28;20035;-72
2023/09/20 00:26:29;;;;;;;5.18;4.15;;;14.50;99.90;;;;;;2088697;28;20028;-72
2023/09/20 00:27:29;;;;;;;6.35;4.43;;;14.60;99.90;;;;;;2086155;28;20049;-72
2023/09/20 00:28:31;;;;;;;7.18;4.60;;;14.50;99.90;;;;;;2087984;28;20038;-72
2023/09/20 00:29:33;;;;;;;6.85;4.65;;;14.50;99.90;;;;;;2083772;28;20031;-72
2023/09/20 00:30:34;;;;;;;6.35;4.30;;;14.60;99.90;;;;;;2077613;28;20033;-72
2023/09/20 00:31:35;;;;;;;7.60;4.30;;;14.60;99.90;;;;;;2092238;28;20443;-74
2023/09/20 00:32:42;;;;;;;6.55;3.95;;;14.60;99.90;;;;;;2088057;28;20503;-73
2023/09/20 00:33:43;;;;;;;7.15;4.20;;;14.60;99.90;;;;;;2089475;28;20073;-73
2023/09/20 00:34:44;;;;;;;5.72;3.83;;;14.60;99.90;;;;;;2092331;28;20024;-72
2023/09/20 00:35:44;;;;;;;5.63;4.20;;;14.60;99.90;;;;;;2088063;28;20079;-72
2023/09/20 00:36:46;;;;;;;6.60;4.07;;;14.60;99.90;;;;;;2090498;28;20020;-72
2023/09/20 00:37:48;;;;;;;5.20;3.97;;;14.60;99.90;;;;;;2082699;28;20047;-73
2023/09/20 00:38:49;;;;;;;6.28;4.10;;;14.60;99.90;;;;;;2088758;28;20033;-73
2023/09/20 00:39:50;;;;;;;5.93;4.25;;;14.60;99.90;;;;;;2087563;28;20166;-74
2023/09/20 00:40:52;;;;;;;5.43;3.88;;;14.60;99.90;;;;;;2086312;28;20032;-73
2023/09/20 00:41:53;;;;;;;6.03;4.05;;;14.60;99.90;;;;;;2088639;28;20029;-72
2023/09/20 00:42:57;;;;;;;4.72;3.80;;;14.60;99.90;;;;;;2086321;28;20013;-73
2023/09/20 00:43:58;;;;;;;8.10;4.40;;;14.60;99.90;;;;;;2086671;28;20084;-75
2023/09/20 00:45:01;;;;;;;6.50;4.03;;;14.60;99.90;;;;;;2091576;28;20604;-73
2023/09/20 00:46:04;;;;;;;7.15;3.85;;;14.60;99.90;;;;;;2087916;28;20044;-72
2023/09/20 00:47:07;;;;;;;6.70;4.00;;;14.60;99.90;;;;;;2088879;28;20024;-72
2023/09/20 00:48:12;;;;;;;5.78;3.92;;;14.60;99.90;;;;;;2079180;28;20554;-73
2023/09/20 00:49:13;;;;;;;7.13;4.07;;;14.60;99.90;;;;;;2093426;28;20023;-73
2023/09/20 00:50:14;;;;;;;7.90;3.95;;;14.60;99.90;;;;;;2089238;28;20402;-73
2023/09/20 00:51:16;;;;;;;5.85;3.70;;;14.60;99.90;;;;;;2086625;28;20028;-73
2023/09/20 00:52:17;;;;;;;6.32;4.10;;;14.60;99.90;;;;;;2092136;28;20399;-73
2023/09/20 00:53:17;;;;;;;5.93;3.92;;;14.60;99.90;;;;;;2088470;28;20042;-73
2023/09/20 00:54:18;;;;;;;5.53;3.97;;;14.60;99.90;;;;;;2080062;28;20033;-73
2023/09/20 00:55:21;;;;;;;7.40;4.00;;;14.60;99.90;;;;;;2081133;28;20135;-73
2023/09/20 00:56:22;;;;;;;7.68;3.70;;;14.60;99.90;;;;;;2088290;28;20527;-74
2023/09/20 00:57:25;;;;;;;6.57;3.72;;;14.50;99.90;;;;;;2092281;28;20028;-73
2023/09/20 00:58:26;;;;;;;3.85;3.42;;;14.50;99.90;;;;;;2079837;28;21097;-73
2023/09/20 00:59:26;;;;;;;5.97;4.10;;;14.50;99.90;;;;;;2082035;28;20033;-72
2023/09/20 01:00:27;;;;;;;9.15;4.03;;;14.50;99.90;;;;;;2090628;28;20032;-74
2023/09/20 01:01:28;;;;;;;6.22;3.90;;;14.50;99.90;;;;;;2091488;28;20106;-74
2023/09/20 01:02:29;;;;;;;6.07;3.60;;;14.50;99.90;;;;;;2089990;28;20617;-72
2023/09/20 01:03:32;;;;;;;6.45;3.70;;;14.50;99.90;;;;;;2085821;28;20029;-72
2023/09/20 01:04:34;;;;;;;6.55;3.90;;;14.50;99.90;;;;;;2091488;28;20429;-72
2023/09/20 01:05:36;;;;;;;5.10;3.50;;;14.50;99.90;;;;;;2086417;28;20070;-72
2023/09/20 01:06:41;;;;;;;5.55;3.50;;;14.50;99.90;;;;;;2087437;28;20576;-72
2023/09/20 01:07:42;;;;;;;5.60;3.78;;;14.50;99.90;;;;;;2084184;28;20052;-72
2023/09/20 01:08:42;;;;;;;7.90;3.83;;;14.50;99.90;;;;;;2082711;28;20029;-74
2023/09/20 01:09:47;;;;;;;5.53;3.53;;;14.50;99.90;;;;;;2090897;28;20446;-73
2023/09/20 01:10:48;;;;;;;5.22;3.83;;;14.50;99.90;;;;;;2090714;28;20060;-72
2023/09/20 01:11:50;;;;;;;5.28;3.67;;;14.50;99.90;;;;;;2086985;28;20028;-74
2023/09/20 01:12:53;;;;;;;5.35;3.83;;;14.50;99.90;;;;;;2090796;28;20041;-74
2023/09/20 01:13:54;;;;;;;6.13;3.70;;;14.50;99.90;;;;;;2091134;28;20020;-74
2023/09/20 01:14:55;;;;;;;6.90;3.60;;;14.40;99.90;;;;;;2087448;28;20495;-74
2023/09/20 01:15:56;;;;;;;6.40;3.83;;;14.40;99.90;;;;;;2088030;28;20819;-74
2023/09/20 01:16:56;;;;;;;5.22;3.53;;;14.50;99.90;;;;;;2086687;28;20110;-74
2023/09/20 01:17:58;;;;;;;6.55;3.70;;;14.40;99.90;;;;;;2091980;28;20096;-75
2023/09/20 01:19:00;;;;;;;8.13;4.00;;;14.40;99.90;;;;;;2088707;28;20120;-74
2023/09/20 01:20:12;;;;;;;6.80;3.97;;;14.40;99.90;;;;;;2091156;28;20024;-74
2023/09/20 01:21:13;;;;;;;5.63;3.78;;;14.40;99.90;;;;;;2083165;28;20024;-74
2023/09/20 01:22:15;;;;;;;6.22;3.85;;;14.40;99.90;;;;;;2093293;28;20051;-74
2023/09/20 01:23:15;;;;;;;5.50;3.85;;;14.40;99.90;;;;;;2083225;28;20546;-74
2023/09/20 01:24:19;;;;;;;7.15;3.75;;;14.40;99.90;;;;;;2091470;28;20036;-76
2023/09/20 01:25:25;;;;;;;5.88;3.97;;;14.40;99.90;;;;;;2082389;28;20542;-74
2023/09/20 01:26:27;;;;;;;6.15;4.00;;;14.40;99.90;;;;;;2082810;28;20051;-74
2023/09/20 01:27:29;;;;;;;4.53;3.13;;;14.40;99.90;;;;;;2085560;28;20041;-74
2023/09/20 01:28:29;;;;;;;4.80;3.50;;;14.40;99.90;;;;;;2088579;28;20029;-75
2023/09/20 01:29:30;;;;;;;6.65;3.80;;;14.40;99.90;;;;;;2091396;28;20166;-74
2023/09/20 01:30:33;;;;;;;7.15;3.60;;;14.40;99.90;;;;;;2085802;28;20077;-74
2023/09/20 01:31:37;;;;;;;7.28;3.70;;;14.40;99.90;;;;;;2086526;28;20650;-74
2023/09/20 01:32:38;;;;;;;4.78;3.40;;;14.30;99.90;;;;;;2091355;28;20504;-74
2023/09/20 01:33:39;;;;;;;5.57;3.40;;;14.30;99.90;;;;;;2088682;28;20541;-74
2023/09/20 01:34:41;;;;;;;5.55;3.30;;;14.30;99.90;;;;;;2088507;28;20470;-73
2023/09/20 01:35:45;;;;;;;6.78;3.47;;;14.30;99.90;;;;;;2092237;28;20126;-74
2023/09/20 01:36:45;;;;;;;5.15;3.50;;;14.30;99.90;;;;;;2086114;28;20037;-74
2023/09/20 01:37:46;;;;;;;5.78;3.60;;;14.30;99.90;;;;;;2083190;28;20033;-74
2023/09/20 01:38:47;;;;;;;6.55;3.80;;;14.30;99.90;;;;;;2090366;28;20021;-73
2023/09/20 01:39:48;;;;;;;5.53;3.50;;;14.30;99.90;;;;;;2090330;28;20027;-74
2023/09/20 01:40:48;;;;;;;6.15;3.50;;;14.30;99.90;;;;;;2087446;28;20100;-74
2023/09/20 01:41:49;;;;;;;5.28;3.30;;;14.30;99.90;;;;;;2094959;28;20035;-75
2023/09/20 01:42:50;;;;;;;4.85;3.28;;;14.30;99.90;;;;;;2095512;28;20036;-72
2023/09/20 01:43:51;;;;;;;5.35;3.47;;;14.20;99.90;;;;;;2091301;28;20024;-75
2023/09/20 01:44:52;;;;;;;5.80;3.53;;;14.20;99.90;;;;;;2083478;28;20112;-73
2023/09/20 01:45:53;;;;;;;5.60;3.47;;;14.30;99.90;;;;;;2089815;28;20028;-74
2023/09/20 01:46:54;;;;;;;6.55;3.60;;;14.30;99.90;;;;;;2074216;28;20033;-75
2023/09/20 01:48:00;;;;;;;5.93;3.50;;;14.20;99.90;;;;;;2083976;28;20013;-75
2023/09/20 01:49:00;;;;;;;5.25;3.22;;;14.20;99.90;;;;;;2088207;28;20508;-74
2023/09/20 01:50:01;;;;;;;6.60;3.70;;;14.30;99.90;;;;;;2090602;28;20340;-74
2023/09/20 01:51:03;;;;;;;5.03;3.30;;;14.30;99.90;;;;;;2085739;28;20036;-74
2023/09/20 01:52:06;;;;;;;5.93;3.40;;;14.30;99.90;;;;;;2086790;28;20420;-74
2023/09/20 01:53:11;;;;;;;7.35;3.60;;;14.30;99.90;;;;;;2083555;28;20028;-74
2023/09/20 01:54:11;;;;;;;5.15;3.42;;;14.20;99.90;;;;;;2084711;28;20110;-74
2023/09/20 01:55:15;;;;;;;5.72;3.72;;;14.20;99.90;;;;;;2083022;28;20080;-74
2023/09/20 01:56:15;;;;;;;4.88;3.28;;;14.20;99.90;;;;;;2083023;28;20025;-73
2023/09/20 01:57:16;;;;;;;4.55;3.50;;;14.20;99.90;;;;;;2087340;28;20021;-74
2023/09/20 01:58:17;;;;;;;6.57;3.50;;;14.20;99.90;;;;;;2089663;28;20032;-74
2023/09/20 01:59:19;;;;;;;6.72;3.67;;;14.10;99.90;;;;;;2080757;28;20021;-74
2023/09/20 02:00:22;;;;;;;6.97;3.67;;;14.20;99.90;;;;;;2082538;28;20032;-73
2023/09/20 02:01:24;;;;;;;6.20;3.67;;;14.10;99.90;;;;;;2090812;28;20071;-74
2023/09/20 02:02:24;;;;;;;5.80;3.58;;;14.10;99.90;;;;;;2092493;28;20384;-75
2023/09/20 02:03:27;;;;;;;7.93;3.75;;;14.10;99.90;;;;;;2092174;28;20946;-74
2023/09/20 02:04:27;;;;;;;7.53;3.75;;;14.10;99.90;;;;;;2094698;28;20028;-74
2023/09/20 02:05:28;;;;;;;6.10;3.67;;;14.20;99.90;;;;;;2085408;28;20116;-74
2023/09/20 02:06:29;;;;;;;6.88;3.70;;;14.10;99.90;;;;;;2088814;28;20388;-74
2023/09/20 02:07:29;;;;;;;5.72;3.53;;;14.10;99.90;;;;;;2090459;28;20024;-74
2023/09/20 02:08:30;;;;;;;7.75;3.83;;;14.10;99.90;;;;;;2085854;28;20025;-74
2023/09/20 02:09:30;;;;;;;8.20;3.90;;;14.10;99.90;;;;;;2092868;28;20040;-74
2023/09/20 02:10:31;;;;;;;6.68;3.85;;;14.20;99.90;;;;;;2086386;28;20037;-74
2023/09/20 02:11:32;;;;;;;5.75;3.63;;;14.20;99.90;;;;;;2083959;28;20040;-73
2023/09/20 02:12:34;;;;;;;5.75;3.30;;;14.20;99.90;;;;;;2084106;28;20095;-72
2023/09/20 02:13:36;;;;;;;6.53;3.55;;;14.20;99.90;;;;;;2087054;28;20025;-74
2023/09/20 02:14:37;;;;;;;5.30;3.58;;;14.20;99.90;;;;;;2090443;28;20153;-74
2023/09/20 02:15:41;;;;;;;5.43;3.72;;;14.20;99.90;;;;;;2078421;28;20026;-73
2023/09/20 02:16:41;;;;;;;6.20;3.55;;;14.20;99.90;;;;;;2085127;28;20025;-75
2023/09/20 02:17:42;;;;;;;5.05;3.50;;;14.20;99.90;;;;;;2087946;28;20117;-74
2023/09/20 02:18:44;;;;;;;6.53;3.60;;;14.20;99.90;;;;;;2086155;28;20557;-74
2023/09/20 02:19:45;;;;;;;6.13;3.60;;;14.20;99.90;;;;;;2091284;28;20071;-76
2023/09/20 02:20:46;;;;;;;5.10;3.40;;;14.20;99.90;;;;;;2089098;28;20028;-75
2023/09/20 02:21:46;;;;;;;6.05;3.42;;;14.20;99.90;;;;;;2075405;28;20025;-75
2023/09/20 02:22:48;;;;;;;4.75;3.45;;;14.20;99.90;;;;;;2085675;28;20058;-75
2023/09/20 02:23:56;;;;;;;5.97;3.80;;;14.10;99.90;;;;;;2090766;28;20024;-75
2023/09/20 02:24:56;;;;;;;5.15;3.40;;;14.10;99.90;;;;;;2086013;28;20043;-74
2023/09/20 02:25:59;;;;;;;5.68;3.70;;;14.10;99.90;;;;;;2090710;28;20027;-75
2023/09/20 02:27:00;;;;;;;5.40;3.30;;;14.10;99.90;;;;;;2092483;28;20426;-75
2023/09/20 02:28:01;;;;;;;6.68;3.42;;;14.10;99.90;;;;;;2086534;28;20047;-76
2023/09/20 02:29:02;;;;;;;5.63;3.58;;;14.10;99.90;;;;;;2090796;28;20100;-75
2023/09/20 02:30:04;;;;;;;5.95;3.30;;;14.10;99.90;;;;;;2089669;28;20091;-75
2023/09/20 02:31:05;;;;;;;6.53;3.72;;;14.10;99.90;;;;;;2092365;28;20032;-75
2023/09/20 02:32:05;;;;;;;5.18;3.50;;;14.10;99.90;;;;;;2093830;28;20052;-76
2023/09/20 02:33:08;;;;;;;5.05;3.40;;;14.10;99.90;;;;;;2091300;28;20032;-75
2023/09/20 02:34:08;;;;;;;5.78;3.35;;;14.10;99.90;;;;;;2083592;28;20048;-75
2023/09/20 02:35:10;;;;;;;5.68;3.50;;;14.10;99.90;;;;;;2080331;28;20021;-76
2023/09/20 02:36:11;;;;;;;5.18;3.40;;;14.10;99.90;;;;;;2087698;28;20869;-74
2023/09/20 02:37:12;;;;;;;4.65;3.28;;;14.00;99.90;;;;;;2091605;28;20029;-74
2023/09/20 02:38:13;;;;;;;6.63;3.70;;;14.10;99.90;;;;;;2085558;28;20518;-75
2023/09/20 02:39:15;;;;;;;5.85;3.50;;;14.10;99.90;;;;;;2095377;28;20518;-75
2023/09/20 02:40:20;;;;;;;6.55;3.90;;;14.00;99.90;;;;;;2085926;28;20032;-74
2023/09/20 02:41:20;;;;;;;6.63;3.42;;;14.00;99.90;;;;;;2087871;28;20040;-74
2023/09/20 02:42:23;;;;;;;7.78;3.83;;;14.00;99.90;;;;;;2083321;28;20036;-74
2023/09/20 02:43:24;;;;;;;5.13;3.47;;;14.00;99.90;;;;;;2083686;28;20148;-73
2023/09/20 02:44:26;;;;;;;6.60;3.80;;;14.00;99.90;;;;;;2087446;28;20287;-75
2023/09/20 02:45:29;;;;;;;5.53;3.85;;;14.00;99.90;;;;;;2079544;28;20128;-74
2023/09/20 02:46:31;;;;;;;7.00;3.80;;;14.00;99.90;;;;;;2083895;28;20106;-74
2023/09/20 02:47:32;;;;;;;6.13;4.00;;;14.00;99.90;;;;;;2086712;28;20052;-75
2023/09/20 02:48:34;;;;;;;6.10;3.80;;;14.00;99.90;;;;;;2093347;28;20024;-76
2023/09/20 02:49:35;;;;;;;7.88;4.28;;;14.00;99.90;;;;;;2096062;28;20012;-74
2023/09/20 02:50:35;;;;;;;6.53;3.90;;;14.00;99.90;;;;;;2093489;28;20546;-76
2023/09/20 02:51:36;;;;;;;7.68;4.05;;;14.00;99.90;;;;;;2084940;28;20150;-75
2023/09/20 02:52:37;;;;;;;7.43;3.92;;;14.00;99.90;;;;;;2078907;28;20035;-74
2023/09/20 02:53:38;;;;;;;10.70;4.72;;;13.90;99.90;;;;;;2078236;28;20128;-75
2023/09/20 02:54:38;;;;;;;6.68;4.10;;;14.00;99.90;;;;;;2084051;28;20024;-74
2023/09/20 02:55:40;;;;;;;8.45;4.50;;;14.00;99.90;;;;;;2093888;28;20024;-75
2023/09/20 02:56:41;;;;;;;6.90;4.20;;;14.00;99.90;;;;;;2088990;28;20033;-74
2023/09/20 02:57:45;;;;;;;6.97;4.30;;;14.00;99.90;;;;;;2086761;28;20912;-74
2023/09/20 02:58:48;;;;;;;6.95;4.43;;;14.00;99.90;;;;;;2091521;28;20059;-76
2023/09/20 02:59:49;;;;;;;8.13;4.43;;;14.00;99.90;;;;;;2087118;28;20071;-75
2023/09/20 03:00:50;;;;;;;6.93;4.40;;;14.00;99.90;;;;;;2090458;28;20109;-74
2023/09/20 03:01:53;;;;;;;9.57;4.32;;;14.00;99.90;;;;;;2083527;28;20521;-73
2023/09/20 03:02:56;;;;;;;7.57;4.53;;;14.00;99.90;;;;;;2083278;28;20262;-74
2023/09/20 03:03:56;;;;;;;8.57;4.10;;;14.00;99.90;;;;;;2091330;28;20028;-74
2023/09/20 03:04:57;;;;;;;9.10;4.55;;;14.00;99.90;;;;;;2084483;28;20036;-75
2023/09/20 03:06:07;;;;;;;7.10;4.22;;;14.10;99.90;;;;;;2090748;28;20515;-75
2023/09/20 03:07:09;;;;;;;7.10;4.28;;;14.10;99.90;;;;;;2084487;28;20129;-75
2023/09/20 03:08:13;;;;;;;6.95;4.40;;;14.00;99.90;;;;;;2087429;28;20451;-75
2023/09/20 03:09:14;;;;;;;7.57;4.60;;;14.00;99.90;;;;;;2085389;28;20028;-74
2023/09/20 03:10:16;;;;;;;9.02;4.80;;;14.10;99.90;;;;;;2085037;28;20025;-74
2023/09/20 03:11:21;;;;;;;8.38;4.60;;;14.10;99.90;;;;;;2085042;28;20591;-74
2023/09/20 03:12:22;;;;;;;8.57;4.32;;;14.10;99.90;;;;;;2091723;28;20090;-74
2023/09/20 03:13:26;;;;;;;6.25;4.13;;;14.10;99.90;;;;;;2083514;28;20469;-74
2023/09/20 03:14:27;;;;;;;8.48;4.30;;;14.10;99.90;;;;;;2077245;28;20524;-74
2023/09/20 03:15:28;;;;;;;8.55;4.40;;;14.10;99.90;;;;;;2091422;28;20036;-74
2023/09/20 03:16:29;;;;;;;7.35;4.13;;;14.00;99.90;;;;;;2095100;28;20320;-75
2023/09/20 03:17:31;;;;;;;6.30;3.92;;;14.00;99.90;;;;;;2085317;28;20048;-74
2023/09/20 03:18:33;;;;;;;5.53;3.72;;;14.00;99.90;;;;;;2086217;28;20025;-74
2023/09/20 03:19:35;;;;;;;8.07;4.20;;;14.00;99.90;;;;;;2080162;28;20618;-75
2023/09/20 03:20:38;;;;;;;6.10;3.72;;;14.00;99.90;;;;;;2081026;28;20045;-74
2023/09/20 03:21:43;;;;;;;6.63;3.95;;;14.10;99.90;;;;;;2079313;28;20055;-74
2023/09/20 03:22:44;;;;;;;5.57;3.90;;;14.10;99.90;;;;;;2082110;28;21225;-75
2023/09/20 03:23:45;;;;;;;7.10;3.95;;;14.00;99.90;;;;;;2081282;28;20431;-75
2023/09/20 03:24:47;;;;;;;4.80;3.67;;;14.10;99.90;;;;;;2077374;28;20052;-76
2023/09/20 03:25:48;;;;;;;5.18;3.53;;;14.10;99.90;;;;;;2082713;28;20029;-66
2023/09/20 03:26:55;;;;;;;6.03;3.90;;;14.10;99.90;;;;;;2084353;28;20491;-74
2023/09/20 03:27:56;;;;;;;5.07;3.55;;;14.10;99.90;;;;;;2083351;28;20073;-75
2023/09/20 03:28:57;;;;;;;6.45;3.70;;;14.10;99.90;;;;;;2086317;28;20029;-75
2023/09/20 03:30:00;;;;;;;8.15;4.10;;;14.10;99.90;;;;;;2087742;28;20066;-66
2023/09/20 03:31:06;;;;;;;5.70;3.70;;;14.10;99.90;;;;;;2081294;28;20025;-67
2023/09/20 03:32:07;;;;;;;5.68;3.65;;;14.10;99.90;;;;;;2086535;28;20029;-66
2023/09/20 03:33:08;;;;;;;7.45;3.97;;;14.10;99.90;;;;;;2093610;28;20414;-66
2023/09/20 03:34:11;;;;;;;5.50;3.55;;;14.20;99.90;;;;;;2091757;28;20028;-66
2023/09/20 03:35:14;;;;;;;5.95;4.22;;;14.10;99.90;;;;;;2090025;28;20029;-66
2023/09/20 03:36:17;;;;;;;5.40;3.70;;;14.10;99.90;;;;;;2083581;28;20091;-66
2023/09/20 03:37:23;;;;;;;5.10;3.95;;;14.10;99.90;;;;;;2084163;28;20025;-65
2023/09/20 03:38:24;;;;;;;6.50;3.95;;;14.20;99.90;;;;;;2074962;28;20422;-66
2023/09/20 03:39:26;;;;;;;5.88;4.10;;;14.20;99.90;;;;;;2080225;28;20102;-67
2023/09/20 03:40:30;;;;;;;4.90;3.70;;;14.20;99.90;;;;;;2083595;28;20280;-66
2023/09/20 03:41:35;;;;;;;7.32;3.85;;;14.20;99.90;;;;;;2084895;28;20135;-67
2023/09/20 03:42:40;;;;;;;5.93;3.90;;;14.20;99.90;;;;;;2085017;28;20093;-67
2023/09/20 03:43:40;;;;;;;5.15;3.70;;;14.20;99.90;;;;;;2085826;28;20052;-67
2023/09/20 03:44:42;;;;;;;8.05;4.20;;;14.20;99.90;;;;;;2083915;28;20033;-67
2023/09/20 03:45:45;;;;;;;7.43;3.85;;;14.20;99.90;;;;;;2089159;28;20414;-67
2023/09/20 03:46:47;;;;;;;6.50;3.92;;;14.20;99.90;;;;;;2080103;28;20063;-67
2023/09/20 03:47:49;;;;;;;7.78;3.95;;;14.20;99.90;;;;;;2076152;28;20087;-67
2023/09/20 03:48:53;;;;;;;5.97;3.75;;;14.20;99.90;;;;;;2075503;28;20037;-67
2023/09/20 03:49:53;;;;;;;5.20;3.90;;;14.20;99.90;;;;;;2091153;28;20043;-66
2023/09/20 03:50:54;;;;;;;5.57;3.90;;;14.20;99.90;;;;;;2076164;28;20026;-68
2023/09/20 03:51:55;;;;;;;5.72;3.90;;;14.10;99.90;;;;;;2075185;28;20037;-67
2023/09/20 03:52:56;;;;;;;5.82;3.50;;;14.10;99.90;;;;;;2083133;28;20373;-67
2023/09/20 03:53:57;;;;;;;6.88;3.85;;;14.10;99.90;;;;;;2087776;28;20033;-67
2023/09/20 03:55:00;;;;;;;5.95;3.88;;;14.20;99.90;;;;;;2094906;28;20062;-67
2023/09/20 03:56:02;;;;;;;5.43;3.60;;;14.10;99.90;;;;;;2086703;28;20025;-67
2023/09/20 03:57:04;;;;;;;5.40;3.60;;;14.20;99.90;;;;;;2088505;28;20112;-67
2023/09/20 03:58:04;;;;;;;5.38;3.47;;;14.10;99.90;;;;;;2082645;28;20769;-67
2023/09/20 03:59:06;;;;;;;5.15;3.50;;;14.20;99.90;;;;;;2077263;28;20117;-68
2023/09/20 04:00:11;;;;;;;4.97;3.33;;;14.20;99.90;;;;;;2081856;28;20047;-66
2023/09/20 04:01:20;;;;;;;6.82;3.75;;;14.10;99.90;;;;;;2083360;28;20029;-65
2023/09/20 04:02:23;;;;;;;6.57;3.33;;;14.10;99.90;;;;;;2094976;28;20086;-68
2023/09/20 04:03:24;;;;;;;4.15;3.40;;;14.10;99.90;;;;;;2091294;28;20028;-67
2023/09/20 04:04:25;;;;;;;4.93;3.35;;;14.10;99.90;;;;;;2091085;28;20558;-66
2023/09/20 04:05:26;;;;;;;6.75;3.50;;;14.10;99.90;;;;;;2087917;28;20039;-67
2023/09/20 04:06:29;;;;;;;4.20;3.17;;;14.10;99.90;;;;;;2095189;28;20063;-66
2023/09/20 04:07:30;;;;;;;4.38;3.38;;;14.10;99.90;;;;;;2084386;28;20658;-67
2023/09/20 04:08:31;;;;;;;5.93;3.40;;;14.10;99.90;;;;;;2089752;28;20025;-67
2023/09/20 04:09:32;;;;;;;5.68;3.20;;;14.10;99.90;;;;;;2091723;28;20024;-68
2023/09/20 04:10:34;;;;;;;5.72;3.72;;;14.10;99.90;;;;;;2085709;28;20021;-69
2023/09/20 04:11:34;;;;;;;5.60;3.33;;;14.10;99.90;;;;;;2083702;28;20025;-67
2023/09/20 04:12:36;;;;;;;5.90;3.20;;;14.00;99.90;;;;;;2093114;28;20546;-68
2023/09/20 04:13:37;;;;;;;5.35;3.30;;;14.00;99.90;;;;;;2092513;28;20029;-67
2023/09/20 04:14:38;;;;;;;4.60;3.10;;;14.00;99.90;;;;;;2087782;28;20029;-67
2023/09/20 04:15:40;;;;;;;6.07;3.38;;;14.10;99.90;;;;;;2083096;28;20021;-67
2023/09/20 04:16:41;;;;;;;5.53;3.20;;;14.00;99.90;;;;;;2091969;28;20068;-66
2023/09/20 04:17:42;;;;;;;5.35;3.50;;;14.00;99.90;;;;;;2088087;28;20263;-67
2023/09/20 04:18:44;;;;;;;6.70;3.60;;;14.00;99.90;;;;;;2086470;28;20120;-68
2023/09/20 04:19:44;;;;;;;4.50;3.38;;;14.00;99.90;;;;;;2074852;28;20092;-67
2023/09/20 04:20:46;;;;;;;6.55;3.50;;;14.00;99.90;;;;;;2080075;28;20539;-67
2023/09/20 04:21:48;;;;;;;6.22;3.80;;;14.00;99.90;;;;;;2077123;28;20017;-70
2023/09/20 04:22:50;;;;;;;5.70;4.07;;;14.00;99.90;;;;;;2074689;28;20061;-66
2023/09/20 04:23:50;;;;;;;4.82;3.88;;;14.00;99.90;;;;;;2078728;28;20341;-67
2023/09/20 04:24:51;;;;;;;7.10;4.00;;;13.90;99.90;;;;;;2082716;28;20274;-68
2023/09/20 04:25:52;;;;;;;6.15;3.80;;;13.90;99.90;;;;;;2091527;28;20028;-67
2023/09/20 04:26:53;;;;;;;6.32;3.97;;;13.90;99.90;;;;;;2090296;28;20020;-67
2023/09/20 04:27:54;;;;;;;8.07;4.10;;;14.00;99.90;;;;;;2074605;28;20053;-67
2023/09/20 04:28:55;;;;;;;4.63;3.70;;;14.00;99.90;;;;;;2082715;28;20116;-66
2023/09/20 04:29:57;;;;;;;7.13;3.85;;;14.00;99.90;;;;;;2083446;28;20790;-67
2023/09/20 04:30:58;;;;;;;5.72;3.90;;;14.00;99.90;;;;;;2089784;28;20052;-66
2023/09/20 04:31:59;;;;;;;5.50;3.83;;;14.00;99.90;;;;;;2091139;28;20485;-67
2023/09/20 04:33:01;;;;;;;5.50;3.70;;;14.00;99.90;;;;;;2081489;28;20022;-67
2023/09/20 04:34:07;;;;;;;7.22;3.70;;;14.00;99.90;;;;;;2083183;28;20483;-67
2023/09/20 04:35:09;;;;;;;5.13;3.63;;;14.00;99.90;;;;;;2090651;28;20422;-68
2023/09/20 04:36:09;;;;;;;5.20;3.40;;;14.10;99.90;;;;;;2086381;28;20155;-68
2023/09/20 04:37:12;;;;;;;4.18;3.38;;;14.10;99.90;;;;;;2087150;28;20511;-67
2023/09/20 04:38:13;;;;;;;5.38;3.28;;;14.10;99.90;;;;;;2090746;28;20032;-67
2023/09/20 04:39:15;;;;;;;5.75;3.58;;;14.10;99.90;;;;;;2079747;28;20033;-67
2023/09/20 04:40:15;;;;;;;5.30;3.30;;;14.10;99.90;;;;;;2086131;28;20033;-67
2023/09/20 04:41:17;;;;;;;6.28;3.25;;;14.10;99.90;;;;;;2084853;28;20102;-67
2023/09/20 04:42:18;;;;;;;6.18;3.63;;;14.10;99.90;;;;;;2077918;28;20091;-67
2023/09/20 04:43:19;;;;;;;4.72;3.08;;;14.10;99.90;;;;;;2083405;28;20026;-66
2023/09/20 04:44:21;;;;;;;5.47;3.40;;;14.20;99.90;;;;;;2082090;28;20025;-67
2023/09/20 04:45:23;;;;;;;5.97;3.50;;;14.20;99.90;;;;;;2074912;28;20047;-68
2023/09/20 04:46:27;;;;;;;5.25;3.10;;;14.20;99.90;;;;;;2095198;28;20821;-67
2023/09/20 04:47:30;;;;;;;4.45;3.33;;;14.20;99.90;;;;;;2091142;28;20175;-68
2023/09/20 04:48:33;;;;;;;5.22;3.30;;;14.20;99.90;;;;;;2082275;28;20578;-66
2023/09/20 04:49:35;;;;;;;5.22;3.40;;;14.20;99.90;;;;;;2089585;28;20025;-67
2023/09/20 04:50:36;;;;;;;5.22;3.40;;;14.30;99.90;;;;;;2088352;28;20027;-68
2023/09/20 04:51:40;;;;;;;5.97;3.45;;;14.20;99.90;;;;;;2087694;28;20020;-67
2023/09/20 04:52:41;;;;;;;6.32;3.28;;;14.30;99.90;;;;;;2069341;28;20026;-66
2023/09/20 04:53:42;;;;;;;4.78;3.13;;;14.30;99.90;;;;;;2071713;28;20438;-66
2023/09/20 04:54:44;;;;;;;4.43;3.22;;;14.30;99.90;;;;;;2083912;28;20028;-67
2023/09/20 04:55:45;;;;;;;5.18;3.15;;;14.30;99.90;;;;;;2091869;28;20093;-67
2023/09/20 04:56:47;;;;;;;4.85;3.40;;;14.30;99.90;;;;;;2089974;28;20148;-66
2023/09/20 04:57:49;;;;;;;4.15;3.20;;;14.30;99.90;;;;;;2092426;28;20021;-66
2023/09/20 04:58:49;;;;;;;6.10;3.30;;;14.30;99.90;;;;;;2079121;28;20028;-66
2023/09/20 04:59:50;;;;;;;6.40;3.28;;;14.30;99.90;;;;;;2084413;28;20435;-66
2023/09/20 05:00:51;;;;;;;4.15;3.40;;;14.30;99.90;;;;;;2085136;28;20028;-65
2023/09/20 05:01:52;;;;;;;5.50;3.22;;;14.30;99.90;;;;;;2086731;28;20025;-65
2023/09/20 05:02:52;;;;;;;5.03;3.30;;;14.30;99.90;;;;;;2092123;28;20020;-67
2023/09/20 05:03:53;;;;;;;6.65;3.28;;;14.30;99.90;;;;;;2082486;28;20140;-65
2023/09/20 05:04:56;;;;;;;5.60;3.38;;;14.40;99.90;;;;;;2082527;28;20029;-65
2023/09/20 05:05:57;;;;;;;7.03;3.50;;;14.40;99.90;;;;;;2084056;28;20020;-65
2023/09/20 05:06:59;;;;;;;6.47;3.17;;;14.40;99.90;;;;;;2085396;28;20032;-66
2023/09/20 05:07:59;;;;;;;6.35;3.20;;;14.40;99.90;;;;;;2087509;28;20017;-70
2023/09/20 05:09:00;;;;;;;4.35;3.15;;;14.40;99.90;;;;;;2090815;28;20025;-70
2023/09/20 05:10:01;;;;;;;5.63;3.22;;;14.40;99.90;;;;;;2094953;28;20141;-72
2023/09/20 05:11:03;;;;;;;5.32;3.60;;;14.40;99.90;;;;;;2093386;28;20020;-71
2023/09/20 05:12:04;;;;;;;6.38;3.50;;;14.40;99.90;;;;;;2075235;28;20116;-70
2023/09/20 05:13:06;;;;;;;5.95;3.95;;;14.40;99.90;;;;;;2077771;28;20033;-69
2023/09/20 05:14:07;;;;;;;7.30;4.03;;;14.40;99.90;;;;;;2082320;28;20047;-69
2023/09/20 05:15:09;;;;;;;4.90;3.60;;;14.50;99.90;;;;;;2083516;28;20029;-68
2023/09/20 05:16:09;;;;;;;5.57;3.55;;;14.40;99.90;;;;;;2090917;28;20029;-69
2023/09/20 05:17:10;;;;;;;8.13;4.15;;;14.50;99.90;;;;;;2086351;28;20044;-69
2023/09/20 05:18:11;;;;;;;8.07;4.13;;;14.40;99.90;;;;;;2092302;28;20130;-70
2023/09/20 05:19:12;;;;;;;5.57;3.72;;;14.50;99.90;;;;;;2084845;28;20163;-70
2023/09/20 05:20:13;;;;;;;6.53;3.95;;;14.50;99.90;;;;;;2076248;28;20245;-69
2023/09/20 05:21:14;;;;;;;8.05;4.40;;;14.50;99.90;;;;;;2090534;28;20063;-69
2023/09/20 05:22:14;;;;;;;6.20;3.85;;;14.50;99.90;;;;;;2092709;28;20035;-70